createdAt,value
2023-01-05T17:37:23.596Z,7.30
2023-01-05T17:39:55.577Z,6.88
2023-01-05T17:42:42.618Z,7.45
2023-01-05T17:45:21.163Z,9.05
2023-01-05T17:47:53.948Z,8.27
2023-01-05T17:53:22.593Z,10.68
2023-01-05T17:55:55.262Z,9.00
2023-01-05T17:58:27.451Z,9.70
2023-01-05T18:00:59.899Z,9.13
2023-01-05T18:03:32.826Z,9.57
2023-01-05T18:06:05.417Z,9.80
2023-01-05T18:08:37.942Z,10.23
2023-01-05T18:11:10.234Z,9.17
2023-01-05T18:16:34.234Z,10.15
2023-01-05T18:19:06.218Z,11.20
2023-01-05T18:21:38.245Z,10.50
2023-01-05T18:24:10.195Z,9.63
2023-01-05T18:26:42.225Z,11.65
2023-01-05T18:29:14.129Z,10.15
2023-01-05T18:31:46.798Z,11.65
2023-01-05T18:34:19.253Z,10.68
2023-01-05T18:36:58.399Z,12.05
2023-01-05T18:39:37.763Z,11.98
2023-01-05T18:42:09.689Z,10.68
2023-01-05T18:44:41.615Z,12.23
2023-01-05T18:47:14.151Z,9.00
2023-01-05T18:49:46.396Z,7.40
2023-01-05T18:52:18.363Z,7.40
2023-01-05T18:54:50.448Z,8.57
2023-01-05T18:57:22.424Z,8.50
2023-01-05T18:59:54.374Z,9.18
2023-01-05T19:02:26.490Z,11.05
2023-01-05T19:04:58.717Z,9.18
2023-01-05T19:07:30.935Z,8.35
2023-01-05T19:10:03.022Z,8.75
2023-01-05T19:12:35.370Z,8.30
2023-01-05T19:15:08.726Z,7.63
2023-01-05T19:17:40.800Z,8.23
2023-01-05T19:20:12.805Z,8.73
2023-01-05T19:22:46.249Z,5.90
2023-01-05T19:25:19.254Z,6.32
2023-01-05T19:27:51.307Z,6.32
2023-01-05T19:30:24.948Z,6.65
2023-01-05T19:35:31.145Z,5.88
2023-01-05T19:38:03.163Z,5.25
2023-01-05T19:40:35.231Z,4.72
2023-01-05T19:43:07.201Z,5.95
2023-01-05T19:45:39.667Z,4.70
2023-01-05T19:48:11.711Z,6.95
2023-01-05T19:50:44.265Z,8.23
2023-01-05T19:53:16.537Z,7.90
2023-01-05T19:55:49.776Z,7.95
2023-01-05T19:58:35.124Z,5.38
2023-01-05T20:01:09.521Z,5.27
2023-01-05T20:03:44.463Z,4.30
2023-01-05T20:06:20.880Z,4.30
2023-01-05T20:08:54.085Z,4.40
2023-01-05T20:11:38.018Z,3.83
2023-01-05T20:14:24.950Z,4.95
2023-01-05T20:17:06.229Z,3.70
2023-01-05T20:19:39.719Z,3.38
2023-01-05T20:22:14.147Z,3.03
2023-01-05T20:24:46.488Z,3.80
2023-01-05T20:27:18.987Z,2.97
2023-01-05T20:29:51.610Z,3.22
2023-01-05T20:32:25.694Z,2.80
2023-01-05T20:35:00.343Z,2.97
2023-01-05T20:37:32.945Z,2.65
2023-01-05T20:40:07.287Z,4.03
2023-01-05T20:42:40.036Z,3.85
2023-01-05T20:45:13.580Z,3.63
2023-01-05T20:47:48.232Z,3.55
2023-01-05T20:50:20.307Z,3.05
2023-01-05T20:52:52.299Z,3.28
2023-01-05T20:55:24.402Z,3.50
2023-01-05T20:57:56.365Z,3.22
2023-01-05T21:00:28.644Z,3.42
2023-01-05T21:03:00.775Z,3.15
